Weather reports worldwide

Advertisment
Gwinn, mi, United States of America (2074855): temperature & dewpoint: 18.05.2018 23:00:00 - 24.05.2018 23:00:00 (EDT)Gwinn, mi, United States of America (2074855): wind speed: 18.05.2018 23:00:00 - 24.05.2018 23:00:00 (EDT)Gwinn, mi, United States of America (2074855): wind direction: 18.05.2018 23:00:00 - 24.05.2018 23:00:00 (EDT)Gwinn, mi, United States of America (2074855): visibility: 18.05.2018 23:00:00 - 24.05.2018 23:00:00 (EDT)
Date & Time tt [°C] td [°C] ff [km/h] ff [kn] dd vv [km]
24.05.2018 23:00:00 19,2 12,8 21 11 W 16
24.05.2018 22:00:00 20,0 13,0 15 8 S 16
24.05.2018 21:00:00 22,0 13,0 13 7 S 16
24.05.2018 20:00:00 24,0 13,0 22 12 S 16
24.05.2018 19:00:00 24,0 17,0 15 8 S 16
24.05.2018 18:00:00 22,0 19,0 13 7 S 16
24.05.2018 17:00:00 21,0 18,0 11 6 SSW 16
24.05.2018 16:00:00 20,0 18,0 15 8 S 16
24.05.2018 15:00:00 20,0 18,0 8 4 SSW 16
24.05.2018 14:00:00 20,0 18,0 16 9 SSW 16
24.05.2018 13:00:00 19,0 17,0 9 5 WSW 16
24.05.2018 12:00:00 25,0 15,0 16 9 WSW 16
24.05.2018 11:00:00 24,0 15,0 18 10 WSW 16
24.05.2018 10:00:00 24,0 15,0 21 11 WSW 16
24.05.2018 09:00:00 20,0 14,0 8 4 WSW 16
24.05.2018 08:00:00 16,0 12,0 0 0 N 16
24.05.2018 07:00:00 12,0 8,0 0 0 N 16
24.05.2018 06:00:00 11,3 8,9 0 0 N 16
24.05.2018 05:00:00 10,6 7,4 0 0 N 16
24.05.2018 04:00:00 12,6 8,9 0 0 N 16
24.05.2018 03:00:00 13,5 9,8 5 3 SSW 16
24.05.2018 02:00:00 14,0 10,0 11 6 SSW 16
24.05.2018 01:00:00 14,8 9,1 8 4 SSW 16
24.05.2018 00:00:00 16,1 8,2 8 4 S 16
23.05.2018 23:00:00 15,3 8,2 0 0 N 16
23.05.2018 22:00:00 18,0 9,0 0 0 N 16
23.05.2018 21:00:00 20,0 9,0 11 6 NE 16
23.05.2018 20:00:00 23,0 7,0 13 7 NE 16
23.05.2018 19:00:00 25,0 6,0 18 10 NE 16
23.05.2018 18:00:00 25,0 6,0 22 12 NE 16
23.05.2018 17:00:00 26,0 6,0 22 12 NE 16
23.05.2018 16:00:00 28,0 0,0 18 10 NNE 16
23.05.2018 15:00:00 28,0 -1,0 18 10 WSW 16
23.05.2018 14:00:00 28,0 -1,0 15 8 SE 16
23.05.2018 13:00:00 27,0 -1,0 13 7 S 16
23.05.2018 12:00:00 25,0 0,0 0 0 N 16
23.05.2018 11:00:00 24,0 0,0 0 0 N 16
23.05.2018 10:00:00 22,0 3,0 11 6 WSW 16
23.05.2018 09:00:00 17,0 5,0 9 5 W 16
23.05.2018 08:00:00 10,0 5,0 0 0 N 16
23.05.2018 07:00:00 7,0 3,0 0 0 N 16
23.05.2018 06:00:00 7,0 3,2 8 4 WNW 16
23.05.2018 05:00:00 7,4 3,3 5 3 NNW 16
23.05.2018 04:00:00 6,5 2,5 0 0 N 16
23.05.2018 03:00:00 6,7 3,1 0 0 N 16
23.05.2018 02:00:00 6,5 1,8 0 0 N 16
23.05.2018 01:00:00 9,1 2,5 0 0 N 16
23.05.2018 00:00:00 10,1 2,7 0 0 N 16
22.05.2018 23:00:00 14,2 3,4 0 0 N 16
22.05.2018 22:00:00 18,0 2,0 5 3 SSE 16
22.05.2018 21:00:00 19,0 2,0 8 4 E 16
22.05.2018 20:00:00 21,0 2,0 16 9 NNE 16
22.05.2018 19:00:00 22,0 0,0 26 14 NNE 16
22.05.2018 18:00:00 23,0 1,0 21 11 NE 16
22.05.2018 17:00:00 24,0 0,0 18 10 NNE 16
22.05.2018 16:00:00 24,0 0,0 8 4 ENE 16
22.05.2018 15:00:00 23,0 -1,0 5 3 N 16
22.05.2018 14:00:00 22,0 -1,0 9 5 NNE 16
22.05.2018 13:00:00 21,0 0,0 16 9 NNE 16
22.05.2018 12:00:00 20,0 0,0 18 10 NE 16
22.05.2018 11:00:00 19,0 5,0 13 7 NNE 16
22.05.2018 10:00:00 16,0 7,0 8 4 N 16
22.05.2018 09:00:00 13,0 7,0 0 0 N 16
22.05.2018 08:00:00 11,0 6,0 5 3 WSW 16
22.05.2018 07:00:00 10,0 6,0 0 0 N 16
22.05.2018 06:00:00 10,2 5,8 9 5 WSW 16
22.05.2018 05:00:00 10,5 6,1 9 5 SSW 16
22.05.2018 04:00:00 10,6 6,2 13 7 SSW 16
22.05.2018 03:00:00 10,6 5,8 11 6 SW 16
22.05.2018 02:00:00 11,0 5,2 16 9 SSW 16
22.05.2018 01:00:00 11,5 4,5 15 8 SSW 16
22.05.2018 00:00:00 12,0 4,8 15 8 SSW 16
21.05.2018 23:00:00 12,3 5,6 15 8 S 16
21.05.2018 22:00:00 13,0 6,0 15 8 S 16
21.05.2018 21:00:00 15,0 5,0 22 12 S 16
21.05.2018 20:00:00 17,0 4,0 22 12 SSE 16
21.05.2018 19:00:00 19,0 -3,0 5 3 S 16
21.05.2018 18:00:00 20,0 -4,0 18 10 SSE 16
21.05.2018 17:00:00 21,0 -6,0 28 15 SSW 16
21.05.2018 16:00:00 22,0 -4,0 26 14 S 16
21.05.2018 15:00:00 22,0 -3,0 26 14 SE 16
21.05.2018 14:00:00 21,0 -1,0 18 10 S 16
21.05.2018 13:00:00 21,0 -4,0 22 12 SE 16
21.05.2018 12:00:00 19,0 -2,0 13 7 SSE 16
21.05.2018 11:00:00 17,0 -2,0 0 0 N 16
21.05.2018 10:00:00 15,0 -1,0 5 3 S 16
21.05.2018 09:00:00 13,0 0,0 5 3 W 16
21.05.2018 08:00:00 6,0 0,0 0 0 N 16
21.05.2018 07:00:00 3,0 -1,0 0 0 N 16
21.05.2018 06:00:00 3,8 -0,9 0 0 N 16
21.05.2018 05:00:00 5,2 -0,5 0 0 N 16
21.05.2018 04:00:00 4,6 -0,4 0 0 N 16
21.05.2018 03:00:00 - - - - - -
21.05.2018 02:00:00 - - - - - -
21.05.2018 01:00:00 - - - - - -
21.05.2018 00:00:00 6,7 -0,9 0 0 N 16
20.05.2018 23:00:00 8,0 -0,8 0 0 N 16
20.05.2018 22:00:00 14,0 -3,0 0 0 N 16
20.05.2018 21:00:00 17,0 -3,0 8 4 ENE 16
20.05.2018 20:00:00 17,0 -3,0 8 4 NE 16
20.05.2018 19:00:00 17,0 -3,0 8 4 ENE 16
20.05.2018 18:00:00 18,0 -3,0 13 7 E 16
20.05.2018 17:00:00 17,0 -2,0 15 8 NE 16
20.05.2018 16:00:00 16,0 -5,0 15 8 NE 16
20.05.2018 15:00:00 15,0 -4,0 11 6 ENE 16
20.05.2018 14:00:00 14,0 -4,0 8 4 NNE 16
20.05.2018 13:00:00 12,0 -5,0 9 5 NNE 16
20.05.2018 12:00:00 10,0 -5,0 18 10 NE 16
20.05.2018 11:00:00 9,0 -5,0 16 9 NNE 16
20.05.2018 10:00:00 8,0 -2,0 11 6 N 16
20.05.2018 09:00:00 5,0 -1,0 13 7 NNE 16
20.05.2018 08:00:00 2,0 0,0 0 0 N 16
20.05.2018 07:00:00 0,0 -1,0 0 0 N 16
20.05.2018 06:00:00 0,7 -0,7 11 6 N 16
20.05.2018 05:00:00 1,7 -0,1 9 5 N 16
20.05.2018 04:00:00 2,8 0,1 18 10 N 16
20.05.2018 03:00:00 3,0 0,1 28 15 N 16
20.05.2018 02:00:00 3,2 0,2 28 15 N 16
20.05.2018 01:00:00 3,0 0,8 24 13 N 16
20.05.2018 00:00:00 3,4 1,0 42 23 N 16
19.05.2018 23:00:00 4,1 1,3 35 19 N 16
19.05.2018 22:00:00 4,0 2,0 42 23 N 16
19.05.2018 21:00:00 4,0 2,0 44 24 N 16
19.05.2018 20:00:00 4,0 2,0 26 14 NNW 16
19.05.2018 19:00:00 5,0 3,0 34 18 N 16
19.05.2018 18:00:00 9,0 2,0 22 12 N 16
19.05.2018 17:00:00 13,0 4,0 29 16 N 16
19.05.2018 16:00:00 9,0 2,0 26 14 NNE 16
19.05.2018 15:00:00 14,0 8,0 15 8 N 16
19.05.2018 14:00:00 15,0 9,0 11 6 ENE 16
19.05.2018 13:00:00 15,0 8,0 5 3 NNW 16
19.05.2018 12:00:00 15,0 5,0 0 0 N 16
19.05.2018 11:00:00 15,0 4,0 0 0 N 16
19.05.2018 10:00:00 14,0 4,0 8 4 S 16
19.05.2018 09:00:00 11,0 3,0 5 3 W 16
19.05.2018 08:00:00 9,0 3,0 9 5 S 16
19.05.2018 07:00:00 9,0 2,0 11 6 SSW 16
19.05.2018 06:00:00 8,2 2,3 9 5 SW 16
19.05.2018 05:00:00 7,9 1,8 11 6 SSW 16
19.05.2018 04:00:00 9,7 2,0 16 9 SSE 16
19.05.2018 03:00:00 10,1 1,6 16 9 S 16
19.05.2018 02:00:00 10,1 1,1 15 8 S 16
19.05.2018 01:00:00 11,0 0,6 16 9 S 16
19.05.2018 00:00:00 11,3 0,7 15 8 S 16
18.05.2018 23:00:00 12,6 0,6 11 6 S 16

tt = temperature
td = dewpoint
ff = wind speed
dd = wind direction
vv = visibility

Next stations